sensor_id;sensor_type;location;lat;lon;timestamp;pressure;altitude;pressure_sealevel;temperature;humidity
42415;BME280;28058;46.344;17.786;2023-01-31T00:01:56;118336.50;;;-144.97;100.00
42415;BME280;28058;46.344;17.786;2023-01-31T00:04:22;118336.50;;;-144.97;100.00
42415;BME280;28058;46.344;17.786;2023-01-31T00:06:49;118336.50;;;-144.97;100.00
42415;BME280;28058;46.344;17.786;2023-01-31T00:09:17;118336.50;;;-144.97;100.00
42415;BME280;28058;46.344;17.786;2023-01-31T00:11:44;118336.50;;;-144.97;100.00
42415;BME280;28058;46.344;17.786;2023-01-31T00:14:14;118336.50;;;-144.97;100.00
42415;BME280;28058;46.344;17.786;2023-01-31T00:16:42;118336.50;;;-144.97;100.00
42415;BME280;28058;46.344;17.786;2023-01-31T00:19:09;118336.50;;;-144.97;100.00
42415;BME280;28058;46.344;17.786;2023-01-31T00:21:36;118336.50;;;-144.97;100.00
42415;BME280;28058;46.344;17.786;2023-01-31T00:24:03;118336.50;;;-144.97;100.00
42415;BME280;28058;46.344;17.786;2023-01-31T00:26:31;118336.50;;;-144.97;100.00
42415;BME280;28058;46.344;17.786;2023-01-31T00:32:30;118336.50;;;-144.97;100.00
42415;BME280;28058;46.344;17.786;2023-01-31T00:34:57;118336.50;;;-144.97;100.00
42415;BME280;28058;46.344;17.786;2023-01-31T00:37:24;118336.50;;;-144.97;100.00
42415;BME280;28058;46.344;17.786;2023-01-31T00:39:52;118336.50;;;-144.97;100.00
42415;BME280;28058;46.344;17.786;2023-01-31T00:45:50;118336.50;;;-144.97;100.00
42415;BME280;28058;46.344;17.786;2023-01-31T00:48:17;118336.50;;;-144.97;100.00
42415;BME280;28058;46.344;17.786;2023-01-31T00:50:43;118336.50;;;-144.97;100.00
42415;BME280;28058;46.344;17.786;2023-01-31T00:53:10;118336.50;;;-144.97;100.00
42415;BME280;28058;46.344;17.786;2023-01-31T00:55:37;118336.50;;;-144.97;100.00
42415;BME280;28058;46.344;17.786;2023-01-31T00:58:04;118336.50;;;-144.97;100.00
42415;BME280;28058;46.344;17.786;2023-01-31T01:00:30;118336.50;;;-144.97;100.00
42415;BME280;28058;46.344;17.786;2023-01-31T01:02:57;118336.50;;;-144.97;100.00
42415;BME280;28058;46.344;17.786;2023-01-31T01:05:24;118336.50;;;-144.97;100.00
42415;BME280;28058;46.344;17.786;2023-01-31T01:07:51;118336.50;;;-144.97;100.00
42415;BME280;28058;46.344;17.786;2023-01-31T01:10:17;118336.50;;;-144.97;100.00
42415;BME280;28058;46.344;17.786;2023-01-31T01:12:44;118336.50;;;-144.97;100.00
42415;BME280;28058;46.344;17.786;2023-01-31T01:15:11;118336.50;;;-144.97;100.00
42415;BME280;28058;46.344;17.786;2023-01-31T01:17:38;118336.50;;;-144.97;100.00
42415;BME280;28058;46.344;17.786;2023-01-31T01:20:04;118336.50;;;-144.97;100.00
42415;BME280;28058;46.344;17.786;2023-01-31T01:22:32;118336.50;;;-144.97;100.00
42415;BME280;28058;46.344;17.786;2023-01-31T01:24:59;118336.50;;;-144.97;100.00
42415;BME280;28058;46.344;17.786;2023-01-31T01:27:26;118336.50;;;-144.97;100.00
42415;BME280;28058;46.344;17.786;2023-01-31T01:29:53;118336.50;;;-144.97;100.00
42415;BME280;28058;46.344;17.786;2023-01-31T01:32:19;118336.50;;;-144.97;100.00
42415;BME280;28058;46.344;17.786;2023-01-31T01:34:46;118336.50;;;-144.97;100.00
42415;BME280;28058;46.344;17.786;2023-01-31T01:37:13;118336.50;;;-144.97;100.00
42415;BME280;28058;46.344;17.786;2023-01-31T01:39:46;118336.50;;;-144.97;100.00
42415;BME280;28058;46.344;17.786;2023-01-31T01:42:14;118336.50;;;-144.97;100.00
42415;BME280;28058;46.344;17.786;2023-01-31T01:49:40;118336.50;;;-144.97;100.00
42415;BME280;28058;46.344;17.786;2023-01-31T01:52:08;118336.50;;;-144.97;100.00
42415;BME280;28058;46.344;17.786;2023-01-31T01:54:43;118336.50;;;-144.97;100.00
42415;BME280;28058;46.344;17.786;2023-01-31T01:57:11;118336.50;;;-144.97;100.00
42415;BME280;28058;46.344;17.786;2023-01-31T01:59:42;118336.50;;;-144.97;100.00
42415;BME280;28058;46.344;17.786;2023-01-31T02:02:11;118336.50;;;-144.97;100.00
42415;BME280;28058;46.344;17.786;2023-01-31T02:04:39;118336.50;;;-144.97;100.00
42415;BME280;28058;46.344;17.786;2023-01-31T02:07:07;118336.50;;;-144.97;100.00
42415;BME280;28058;46.344;17.786;2023-01-31T02:09:41;118336.50;;;-144.97;100.00
42415;BME280;28058;46.344;17.786;2023-01-31T02:12:10;118336.50;;;-144.97;100.00
42415;BME280;28058;46.344;17.786;2023-01-31T02:14:37;118336.50;;;-144.97;100.00
42415;BME280;28058;46.344;17.786;2023-01-31T02:17:04;118336.50;;;-144.97;100.00
42415;BME280;28058;46.344;17.786;2023-01-31T02:24:54;118336.50;;;-144.97;100.00
42415;BME280;28058;46.344;17.786;2023-01-31T02:27:17;118336.50;;;-144.97;100.00
42415;BME280;28058;46.344;17.786;2023-01-31T02:32:29;118336.50;;;-144.97;100.00
42415;BME280;28058;46.344;17.786;2023-01-31T02:40:19;118336.50;;;-144.97;100.00
42415;BME280;28058;46.344;17.786;2023-01-31T02:42:53;118336.50;;;-144.97;100.00
42415;BME280;28058;46.344;17.786;2023-01-31T02:45:40;118336.50;;;-144.97;100.00
42415;BME280;28058;46.344;17.786;2023-01-31T02:48:33;118336.50;;;-144.97;100.00
42415;BME280;28058;46.344;17.786;2023-01-31T02:54:07;118336.50;;;-144.97;100.00
42415;BME280;28058;46.344;17.786;2023-01-31T02:56:35;118336.50;;;-144.97;100.00
42415;BME280;28058;46.344;17.786;2023-01-31T02:59:05;118336.50;;;-144.97;100.00
42415;BME280;28058;46.344;17.786;2023-01-31T03:01:39;118336.50;;;-144.97;100.00
42415;BME280;28058;46.344;17.786;2023-01-31T03:04:08;118336.50;;;-144.97;100.00
42415;BME280;28058;46.344;17.786;2023-01-31T03:09:09;118336.50;;;-144.97;100.00
42415;BME280;28058;46.344;17.786;2023-01-31T03:12:00;118336.50;;;-144.97;100.00
42415;BME280;28058;46.344;17.786;2023-01-31T03:15:06;118336.50;;;-144.97;100.00
42415;BME280;28058;46.344;17.786;2023-01-31T03:17:48;118336.50;;;-144.97;100.00
42415;BME280;28058;46.344;17.786;2023-01-31T03:22:40;118336.50;;;-144.97;100.00
42415;BME280;28058;46.344;17.786;2023-01-31T03:25:09;118336.50;;;-144.97;100.00
42415;BME280;28058;46.344;17.786;2023-01-31T03:27:40;118336.50;;;-144.97;100.00
42415;BME280;28058;46.344;17.786;2023-01-31T03:30:11;118336.50;;;-144.97;100.00
42415;BME280;28058;46.344;17.786;2023-01-31T03:32:41;118336.50;;;-144.97;100.00
42415;BME280;28058;46.344;17.786;2023-01-31T03:35:10;118336.50;;;-144.97;100.00
42415;BME280;28058;46.344;17.786;2023-01-31T03:40:07;118336.50;;;-144.97;100.00
42415;BME280;28058;46.344;17.786;2023-01-31T03:47:40;118336.50;;;-144.97;100.00
42415;BME280;28058;46.344;17.786;2023-01-31T03:53:04;118336.50;;;-144.97;100.00
42415;BME280;28058;46.344;17.786;2023-01-31T03:55:33;118336.50;;;-144.97;100.00
42415;BME280;28058;46.344;17.786;2023-01-31T03:58:02;118336.50;;;-144.97;100.00
42415;BME280;28058;46.344;17.786;2023-01-31T04:00:31;118336.50;;;-144.97;100.00
42415;BME280;28058;46.344;17.786;2023-01-31T04:03:03;118336.50;;;-144.97;100.00
42415;BME280;28058;46.344;17.786;2023-01-31T04:05:33;118336.50;;;-144.97;100.00
42415;BME280;28058;46.344;17.786;2023-01-31T04:08:00;118336.50;;;-144.97;100.00
42415;BME280;28058;46.344;17.786;2023-01-31T04:10:26;118336.50;;;-144.97;100.00
42415;BME280;28058;46.344;17.786;2023-01-31T04:12:53;118336.50;;;-144.97;100.00
42415;BME280;28058;46.344;17.786;2023-01-31T04:15:20;118336.50;;;-144.97;100.00
42415;BME280;28058;46.344;17.786;2023-01-31T04:17:47;118336.50;;;-144.97;100.00
42415;BME280;28058;46.344;17.786;2023-01-31T04:20:14;118336.50;;;-144.97;100.00
42415;BME280;28058;46.344;17.786;2023-01-31T04:22:41;118336.50;;;-144.97;100.00
42415;BME280;28058;46.344;17.786;2023-01-31T04:25:08;118336.50;;;-144.97;100.00
42415;BME280;28058;46.344;17.786;2023-01-31T04:27:35;118336.50;;;-144.97;100.00
42415;BME280;28058;46.344;17.786;2023-01-31T04:30:02;118336.50;;;-144.97;100.00
42415;BME280;28058;46.344;17.786;2023-01-31T04:32:29;118336.50;;;-144.97;100.00
42415;BME280;28058;46.344;17.786;2023-01-31T04:34:55;118336.50;;;-144.97;100.00
42415;BME280;28058;46.344;17.786;2023-01-31T04:37:22;118336.50;;;-144.97;100.00
42415;BME280;28058;46.344;17.786;2023-01-31T04:39:49;118336.50;;;-144.97;100.00
42415;BME280;28058;46.344;17.786;2023-01-31T04:42:15;118336.50;;;-144.97;100.00
42415;BME280;28058;46.344;17.786;2023-01-31T04:44:42;118336.50;;;-144.97;100.00
42415;BME280;28058;46.344;17.786;2023-01-31T04:47:09;118336.50;;;-144.97;100.00
42415;BME280;28058;46.344;17.786;2023-01-31T04:49:35;118336.50;;;-144.97;100.00
42415;BME280;28058;46.344;17.786;2023-01-31T04:52:02;118336.50;;;-144.97;100.00
42415;BME280;28058;46.344;17.786;2023-01-31T04:54:29;118336.50;;;-144.97;100.00
42415;BME280;28058;46.344;17.786;2023-01-31T04:56:56;118336.50;;;-144.97;100.00
42415;BME280;28058;46.344;17.786;2023-01-31T04:59:22;118336.50;;;-144.97;100.00
42415;BME280;28058;46.344;17.786;2023-01-31T05:01:49;118336.50;;;-144.97;100.00
42415;BME280;28058;46.344;17.786;2023-01-31T05:04:16;118336.50;;;-144.97;100.00
42415;BME280;28058;46.344;17.786;2023-01-31T05:06:42;118336.50;;;-144.97;100.00
42415;BME280;28058;46.344;17.786;2023-01-31T05:09:09;118336.50;;;-144.97;100.00
42415;BME280;28058;46.344;17.786;2023-01-31T05:11:36;118336.50;;;-144.97;100.00
42415;BME280;28058;46.344;17.786;2023-01-31T05:14:03;118336.50;;;-144.97;100.00
42415;BME280;28058;46.344;17.786;2023-01-31T05:16:30;118336.50;;;-144.97;100.00
42415;BME280;28058;46.344;17.786;2023-01-31T05:18:57;118336.50;;;-144.97;100.00
42415;BME280;28058;46.344;17.786;2023-01-31T05:21:24;118336.50;;;-144.97;100.00
42415;BME280;28058;46.344;17.786;2023-01-31T05:23:51;118336.50;;;-144.97;100.00
42415;BME280;28058;46.344;17.786;2023-01-31T05:26:18;118336.50;;;-144.97;100.00
42415;BME280;28058;46.344;17.786;2023-01-31T05:28:44;118336.50;;;-144.97;100.00
42415;BME280;28058;46.344;17.786;2023-01-31T05:31:11;118336.50;;;-144.97;100.00
42415;BME280;28058;46.344;17.786;2023-01-31T05:33:39;118336.50;;;-144.97;100.00
42415;BME280;28058;46.344;17.786;2023-01-31T05:36:06;118336.50;;;-144.97;100.00
42415;BME280;28058;46.344;17.786;2023-01-31T05:38:32;118336.50;;;-144.97;100.00
42415;BME280;28058;46.344;17.786;2023-01-31T05:40:59;118336.50;;;-144.97;100.00
42415;BME280;28058;46.344;17.786;2023-01-31T05:43:26;118336.50;;;-144.97;100.00
42415;BME280;28058;46.344;17.786;2023-01-31T05:45:53;118336.50;;;-144.97;100.00
42415;BME280;28058;46.344;17.786;2023-01-31T05:48:19;118336.50;;;-144.97;100.00
42415;BME280;28058;46.344;17.786;2023-01-31T05:50:47;118336.50;;;-144.97;100.00
42415;BME280;28058;46.344;17.786;2023-01-31T05:53:14;118336.50;;;-144.97;100.00
42415;BME280;28058;46.344;17.786;2023-01-31T05:55:41;118336.50;;;-144.97;100.00
42415;BME280;28058;46.344;17.786;2023-01-31T05:58:08;118336.50;;;-144.97;100.00
42415;BME280;28058;46.344;17.786;2023-01-31T06:00:35;118336.50;;;-144.97;100.00
42415;BME280;28058;46.344;17.786;2023-01-31T06:03:02;118336.50;;;-144.97;100.00
42415;BME280;28058;46.344;17.786;2023-01-31T06:05:29;118336.50;;;-144.97;100.00
42415;BME280;28058;46.344;17.786;2023-01-31T06:07:56;118336.50;;;-144.97;100.00
42415;BME280;28058;46.344;17.786;2023-01-31T06:10:23;118336.50;;;-144.97;100.00
42415;BME280;28058;46.344;17.786;2023-01-31T06:12:49;118336.50;;;-144.97;100.00
42415;BME280;28058;46.344;17.786;2023-01-31T06:15:16;118336.50;;;-144.97;100.00
42415;BME280;28058;46.344;17.786;2023-01-31T06:17:44;118336.50;;;-144.97;100.00
42415;BME280;28058;46.344;17.786;2023-01-31T06:20:10;118336.50;;;-144.97;100.00
42415;BME280;28058;46.344;17.786;2023-01-31T06:22:37;118336.50;;;-144.97;100.00
42415;BME280;28058;46.344;17.786;2023-01-31T06:25:04;118336.50;;;-144.97;100.00
42415;BME280;28058;46.344;17.786;2023-01-31T06:27:32;118336.50;;;-144.97;100.00
42415;BME280;28058;46.344;17.786;2023-01-31T06:29:59;118336.50;;;-144.97;100.00
42415;BME280;28058;46.344;17.786;2023-01-31T06:32:26;118336.50;;;-144.97;100.00
42415;BME280;28058;46.344;17.786;2023-01-31T06:34:53;118336.50;;;-144.97;100.00
42415;BME280;28058;46.344;17.786;2023-01-31T06:37:19;118336.50;;;-144.97;100.00
42415;BME280;28058;46.344;17.786;2023-01-31T06:39:46;118336.50;;;-144.97;100.00
42415;BME280;28058;46.344;17.786;2023-01-31T06:42:13;118336.50;;;-144.97;100.00
42415;BME280;28058;46.344;17.786;2023-01-31T06:44:40;118336.50;;;-144.97;100.00
42415;BME280;28058;46.344;17.786;2023-01-31T06:47:07;118336.50;;;-144.97;100.00
42415;BME280;28058;46.344;17.786;2023-01-31T06:49:33;118336.50;;;-144.97;100.00
42415;BME280;28058;46.344;17.786;2023-01-31T06:52:00;118336.50;;;-144.97;100.00
42415;BME280;28058;46.344;17.786;2023-01-31T06:54:27;118336.50;;;-144.97;100.00
42415;BME280;28058;46.344;17.786;2023-01-31T06:56:54;118336.50;;;-144.97;100.00
42415;BME280;28058;46.344;17.786;2023-01-31T06:59:21;118336.50;;;-144.97;100.00
42415;BME280;28058;46.344;17.786;2023-01-31T07:01:48;118336.50;;;-144.97;100.00
42415;BME280;28058;46.344;17.786;2023-01-31T07:04:14;118336.50;;;-144.97;100.00
42415;BME280;28058;46.344;17.786;2023-01-31T07:06:41;118336.50;;;-144.97;100.00
42415;BME280;28058;46.344;17.786;2023-01-31T07:09:08;118336.50;;;-144.97;100.00
42415;BME280;28058;46.344;17.786;2023-01-31T07:11:35;118336.50;;;-144.97;100.00
42415;BME280;28058;46.344;17.786;2023-01-31T07:14:03;118336.50;;;-144.97;100.00
42415;BME280;28058;46.344;17.786;2023-01-31T07:16:29;118336.50;;;-144.97;100.00
42415;BME280;28058;46.344;17.786;2023-01-31T07:18:56;118336.50;;;-144.97;100.00
42415;BME280;28058;46.344;17.786;2023-01-31T07:21:23;118336.50;;;-144.97;100.00
42415;BME280;28058;46.344;17.786;2023-01-31T07:23:51;118336.50;;;-144.97;100.00
42415;BME280;28058;46.344;17.786;2023-01-31T07:26:18;118336.50;;;-144.97;100.00
42415;BME280;28058;46.344;17.786;2023-01-31T07:28:45;118336.50;;;-144.97;100.00
42415;BME280;28058;46.344;17.786;2023-01-31T07:31:12;118336.50;;;-144.97;100.00
42415;BME280;28058;46.344;17.786;2023-01-31T07:33:39;118336.50;;;-144.97;100.00
42415;BME280;28058;46.344;17.786;2023-01-31T07:36:06;118336.50;;;-144.97;100.00
42415;BME280;28058;46.344;17.786;2023-01-31T07:38:33;118336.50;;;-144.97;100.00
42415;BME280;28058;46.344;17.786;2023-01-31T07:41:00;118336.50;;;-144.97;100.00
42415;BME280;28058;46.344;17.786;2023-01-31T07:43:29;118336.50;;;-144.97;100.00
42415;BME280;28058;46.344;17.786;2023-01-31T07:45:56;118336.50;;;-144.97;100.00
42415;BME280;28058;46.344;17.786;2023-01-31T07:48:23;118336.50;;;-144.97;100.00
42415;BME280;28058;46.344;17.786;2023-01-31T07:50:57;118336.50;;;-144.97;100.00
42415;BME280;28058;46.344;17.786;2023-01-31T07:53:25;118336.50;;;-144.97;100.00
42415;BME280;28058;46.344;17.786;2023-01-31T07:55:52;118336.50;;;-144.97;100.00
42415;BME280;28058;46.344;17.786;2023-01-31T07:58:19;118336.50;;;-144.97;100.00
42415;BME280;28058;46.344;17.786;2023-01-31T08:00:46;118336.50;;;-144.97;100.00
42415;BME280;28058;46.344;17.786;2023-01-31T08:03:31;118336.50;;;-144.97;100.00
42415;BME280;28058;46.344;17.786;2023-01-31T08:08:32;118336.50;;;-144.97;100.00
42415;BME280;28058;46.344;17.786;2023-01-31T08:10:59;118336.50;;;-144.97;100.00
42415;BME280;28058;46.344;17.786;2023-01-31T08:13:26;118336.50;;;-144.97;100.00
42415;BME280;28058;46.344;17.786;2023-01-31T08:15:52;118336.50;;;-144.97;100.00
42415;BME280;28058;46.344;17.786;2023-01-31T08:18:19;118336.50;;;-144.97;100.00
42415;BME280;28058;46.344;17.786;2023-01-31T08:20:46;118336.50;;;-144.97;100.00
42415;BME280;28058;46.344;17.786;2023-01-31T08:23:12;118336.50;;;-144.97;100.00
42415;BME280;28058;46.344;17.786;2023-01-31T08:25:39;118336.50;;;-144.97;100.00
42415;BME280;28058;46.344;17.786;2023-01-31T08:28:06;118336.50;;;-144.97;94.49
42415;BME280;28058;46.344;17.786;2023-01-31T08:30:33;118336.50;;;-144.97;77.00
42415;BME280;28058;46.344;17.786;2023-01-31T08:32:59;118336.50;;;-144.97;64.94
42415;BME280;28058;46.344;17.786;2023-01-31T08:35:26;118336.50;;;-144.97;61.92
42415;BME280;28058;46.344;17.786;2023-01-31T08:37:53;118336.50;;;-144.97;60.66
42415;BME280;28058;46.344;17.786;2023-01-31T08:40:35;118336.50;;;-144.97;77.24
42415;BME280;28058;46.344;17.786;2023-01-31T08:43:02;118336.50;;;-144.97;79.69
42415;BME280;28058;46.344;17.786;2023-01-31T08:45:29;118336.50;;;-144.97;77.93
42415;BME280;28058;46.344;17.786;2023-01-31T08:47:57;118336.50;;;-144.97;79.29
42415;BME280;28058;46.344;17.786;2023-01-31T08:50:27;118336.50;;;-144.97;82.19
42415;BME280;28058;46.344;17.786;2023-01-31T08:52:56;118336.50;;;-144.97;87.99
42415;BME280;28058;46.344;17.786;2023-01-31T08:55:23;118336.50;;;-144.97;89.34
42415;BME280;28058;46.344;17.786;2023-01-31T08:57:50;118336.50;;;-144.97;73.61
42415;BME280;28058;46.344;17.786;2023-01-31T09:00:25;118336.50;;;-144.97;71.06
42415;BME280;28058;46.344;17.786;2023-01-31T09:02:53;118336.50;;;-144.97;65.27
42415;BME280;28058;46.344;17.786;2023-01-31T09:05:19;118336.50;;;-144.97;63.06
42415;BME280;28058;46.344;17.786;2023-01-31T09:07:47;118336.50;;;-144.97;67.49
42415;BME280;28058;46.344;17.786;2023-01-31T09:10:13;118336.50;;;-144.97;71.41
42415;BME280;28058;46.344;17.786;2023-01-31T09:12:40;118336.50;;;-144.97;81.71
42415;BME280;28058;46.344;17.786;2023-01-31T09:15:07;118336.50;;;-144.97;88.88
42415;BME280;28058;46.344;17.786;2023-01-31T09:17:34;118336.50;;;-144.97;93.88
42415;BME280;28058;46.344;17.786;2023-01-31T09:20:00;118336.50;;;-144.97;91.52
42415;BME280;28058;46.344;17.786;2023-01-31T09:22:32;118336.50;;;-144.97;84.25
42415;BME280;28058;46.344;17.786;2023-01-31T09:25:00;118336.50;;;-144.97;83.84
42415;BME280;28058;46.344;17.786;2023-01-31T09:27:27;118336.50;;;-144.97;91.29
42415;BME280;28058;46.344;17.786;2023-01-31T09:29:54;118336.50;;;-144.97;95.69
42415;BME280;28058;46.344;17.786;2023-01-31T09:32:21;118336.50;;;-144.97;100.00
42415;BME280;28058;46.344;17.786;2023-01-31T09:34:48;118336.50;;;-144.97;100.00
42415;BME280;28058;46.344;17.786;2023-01-31T09:37:15;118336.50;;;-144.97;100.00
42415;BME280;28058;46.344;17.786;2023-01-31T09:39:41;118336.50;;;-144.97;100.00
42415;BME280;28058;46.344;17.786;2023-01-31T09:42:20;118336.50;;;-144.97;100.00
42415;BME280;28058;46.344;17.786;2023-01-31T09:44:52;118336.50;;;-144.97;100.00
42415;BME280;28058;46.344;17.786;2023-01-31T09:47:25;118336.50;;;-144.97;100.00
42415;BME280;28058;46.344;17.786;2023-01-31T09:49:57;118336.50;;;-144.97;100.00
42415;BME280;28058;46.344;17.786;2023-01-31T09:52:26;118336.50;;;-144.97;100.00
42415;BME280;28058;46.344;17.786;2023-01-31T09:54:53;118336.50;;;-144.97;100.00
42415;BME280;28058;46.344;17.786;2023-01-31T10:00:08;118336.50;;;-144.97;100.00
42415;BME280;28058;46.344;17.786;2023-01-31T10:07:40;118336.50;;;-144.97;100.00
42415;BME280;28058;46.344;17.786;2023-01-31T10:10:32;118336.50;;;-144.97;100.00
42415;BME280;28058;46.344;17.786;2023-01-31T10:13:02;118336.50;;;-144.97;100.00
42415;BME280;28058;46.344;17.786;2023-01-31T10:17:59;118336.50;;;-144.97;100.00
42415;BME280;28058;46.344;17.786;2023-01-31T10:20:33;118336.50;;;-144.97;100.00
42415;BME280;28058;46.344;17.786;2023-01-31T10:23:03;118336.50;;;-144.97;100.00
42415;BME280;28058;46.344;17.786;2023-01-31T10:25:33;118336.50;;;-144.97;100.00
42415;BME280;28058;46.344;17.786;2023-01-31T10:30:50;118336.50;;;-144.97;100.00
42415;BME280;28058;46.344;17.786;2023-01-31T10:36:10;118336.50;;;-144.97;100.00
42415;BME280;28058;46.344;17.786;2023-01-31T10:38:40;118336.50;;;-144.97;100.00
42415;BME280;28058;46.344;17.786;2023-01-31T10:41:12;118336.50;;;-144.97;100.00
42415;BME280;28058;46.344;17.786;2023-01-31T10:43:43;118336.50;;;-144.97;100.00
42415;BME280;28058;46.344;17.786;2023-01-31T10:46:11;118336.50;;;-144.97;100.00
42415;BME280;28058;46.344;17.786;2023-01-31T10:48:38;118336.50;;;-144.97;100.00
42415;BME280;28058;46.344;17.786;2023-01-31T10:51:16;118336.50;;;-144.97;97.90
42415;BME280;28058;46.344;17.786;2023-01-31T10:56:31;118336.50;;;-144.97;93.31
42415;BME280;28058;46.344;17.786;2023-01-31T10:58:59;118336.50;;;-144.97;93.24
42415;BME280;28058;46.344;17.786;2023-01-31T11:01:26;118336.50;;;-144.97;91.82
42415;BME280;28058;46.344;17.786;2023-01-31T11:03:54;118336.50;;;-144.97;88.41
42415;BME280;28058;46.344;17.786;2023-01-31T11:06:21;118336.50;;;-144.97;85.71
42415;BME280;28058;46.344;17.786;2023-01-31T11:09:09;118336.50;;;-144.97;87.46
42415;BME280;28058;46.344;17.786;2023-01-31T11:11:37;118336.50;;;-144.97;85.60
42415;BME280;28058;46.344;17.786;2023-01-31T11:14:18;118336.50;;;-144.97;80.94
42415;BME280;28058;46.344;17.786;2023-01-31T11:16:44;118336.50;;;-144.97;80.28
42415;BME280;28058;46.344;17.786;2023-01-31T11:21:41;118336.50;;;-144.97;79.61
42415;BME280;28058;46.344;17.786;2023-01-31T11:24:20;118336.50;;;-144.97;79.31
42415;BME280;28058;46.344;17.786;2023-01-31T11:26:56;118336.50;;;-144.97;80.32
42415;BME280;28058;46.344;17.786;2023-01-31T11:29:24;118336.50;;;-144.97;79.85
42415;BME280;28058;46.344;17.786;2023-01-31T11:31:53;118336.50;;;-144.97;79.92
42415;BME280;28058;46.344;17.786;2023-01-31T11:34:21;118336.50;;;-144.97;78.89
42415;BME280;28058;46.344;17.786;2023-01-31T11:36:49;118336.50;;;-144.97;79.25
42415;BME280;28058;46.344;17.786;2023-01-31T11:39:24;118336.50;;;-144.97;77.40
42415;BME280;28058;46.344;17.786;2023-01-31T11:41:51;118336.50;;;-144.97;78.29
42415;BME280;28058;46.344;17.786;2023-01-31T11:44:21;118336.50;;;-144.97;77.17
42415;BME280;28058;46.344;17.786;2023-01-31T11:46:59;118336.50;;;-144.97;75.54
42415;BME280;28058;46.344;17.786;2023-01-31T11:49:30;118336.50;;;-144.97;74.48
42415;BME280;28058;46.344;17.786;2023-01-31T11:52:09;118336.50;;;-144.97;73.40
42415;BME280;28058;46.344;17.786;2023-01-31T11:54:38;118336.50;;;-144.97;73.93
42415;BME280;28058;46.344;17.786;2023-01-31T11:57:12;118336.50;;;-144.97;75.51
42415;BME280;28058;46.344;17.786;2023-01-31T11:59:39;118336.50;;;-144.97;77.03
42415;BME280;28058;46.344;17.786;2023-01-31T12:02:12;118336.50;;;-144.97;77.18
42415;BME280;28058;46.344;17.786;2023-01-31T12:04:45;118336.50;;;-144.97;76.92
42415;BME280;28058;46.344;17.786;2023-01-31T12:07:25;118336.50;;;-144.97;76.48
42415;BME280;28058;46.344;17.786;2023-01-31T12:09:54;118336.50;;;-144.97;78.10
42415;BME280;28058;46.344;17.786;2023-01-31T12:12:22;118336.50;;;-144.97;77.68
42415;BME280;28058;46.344;17.786;2023-01-31T12:14:50;118336.50;;;-144.97;78.66
42415;BME280;28058;46.344;17.786;2023-01-31T12:17:17;118336.50;;;-144.97;77.89
42415;BME280;28058;46.344;17.786;2023-01-31T12:19:56;118336.50;;;-144.97;78.08
42415;BME280;28058;46.344;17.786;2023-01-31T12:22:46;118336.50;;;-144.97;77.85
42415;BME280;28058;46.344;17.786;2023-01-31T12:25:25;118336.50;;;-144.97;77.98
42415;BME280;28058;46.344;17.786;2023-01-31T12:28:00;118336.50;;;-144.97;77.06
42415;BME280;28058;46.344;17.786;2023-01-31T12:56:22;118336.50;;;-144.97;80.34
42415;BME280;28058;46.344;17.786;2023-01-31T13:07:32;118336.50;;;-144.97;81.80
42415;BME280;28058;46.344;17.786;2023-01-31T13:10:02;118336.50;;;-144.97;82.97
42415;BME280;28058;46.344;17.786;2023-01-31T13:12:30;118336.50;;;-144.97;81.67
42415;BME280;28058;46.344;17.786;2023-01-31T13:15:09;118336.50;;;-144.97;82.78
42415;BME280;28058;46.344;17.786;2023-01-31T13:17:40;118336.50;;;-144.97;83.05
42415;BME280;28058;46.344;17.786;2023-01-31T13:20:22;118336.50;;;-144.97;83.88
42415;BME280;28058;46.344;17.786;2023-01-31T13:22:52;118336.50;;;-144.97;84.23
42415;BME280;28058;46.344;17.786;2023-01-31T13:25:22;118336.50;;;-144.97;83.71
42415;BME280;28058;46.344;17.786;2023-01-31T13:27:59;118336.50;;;-144.97;82.04
42415;BME280;28058;46.344;17.786;2023-01-31T13:30:42;118336.50;;;-144.97;80.77
42415;BME280;28058;46.344;17.786;2023-01-31T13:33:24;118336.50;;;-144.97;80.89
42415;BME280;28058;46.344;17.786;2023-01-31T13:35:58;118336.50;;;-144.97;78.86
42415;BME280;28058;46.344;17.786;2023-01-31T13:38:30;118336.50;;;-144.97;73.90
42415;BME280;28058;46.344;17.786;2023-01-31T13:40:59;118336.50;;;-144.97;68.68
42415;BME280;28058;46.344;17.786;2023-01-31T13:43:26;118336.50;;;-144.97;66.78
42415;BME280;28058;46.344;17.786;2023-01-31T13:46:11;118336.50;;;-144.97;62.38
42415;BME280;28058;46.344;17.786;2023-01-31T13:48:41;118336.50;;;-144.97;59.83
42415;BME280;28058;46.344;17.786;2023-01-31T13:51:32;118336.50;;;-144.97;59.52
42415;BME280;28058;46.344;17.786;2023-01-31T13:54:03;118336.50;;;-144.97;59.64
42415;BME280;28058;46.344;17.786;2023-01-31T13:56:31;118336.50;;;-144.97;59.05
42415;BME280;28058;46.344;17.786;2023-01-31T13:58:59;118336.50;;;-144.97;59.01
42415;BME280;28058;46.344;17.786;2023-01-31T14:01:27;118336.50;;;-144.97;59.41
42415;BME280;28058;46.344;17.786;2023-01-31T14:09:27;118336.50;;;-144.97;57.03
42415;BME280;28058;46.344;17.786;2023-01-31T14:11:55;118336.50;;;-144.97;56.32